sensor_id;sensor_type;location;lat;lon;timestamp;pressure;altitude;pressure_sealevel;temperature
71163;BMP280;58858;50.948;6.566;2022-11-20T00:02:22;100323.78;;;2.58
71163;BMP280;58858;50.948;6.566;2022-11-20T00:12:23;100326.88;;;2.67
71163;BMP280;58858;50.948;6.566;2022-11-20T00:22:24;100361.09;;;2.65
71163;BMP280;58858;50.948;6.566;2022-11-20T00:32:25;100340.34;;;2.72
71163;BMP280;58858;50.948;6.566;2022-11-20T00:42:26;100328.91;;;2.61
71163;BMP280;58858;50.948;6.566;2022-11-20T00:52:27;100287.00;;;2.44
71163;BMP280;58858;50.948;6.566;2022-11-20T01:02:28;100303.72;;;2.43
71163;BMP280;58858;50.948;6.566;2022-11-20T01:12:29;100336.28;;;2.61
71163;BMP280;58858;50.948;6.566;2022-11-20T01:22:30;100329.88;;;2.58
71163;BMP280;58858;50.948;6.566;2022-11-20T01:32:31;100323.28;;;2.54
71163;BMP280;58858;50.948;6.566;2022-11-20T01:42:32;100307.81;;;2.54
71163;BMP280;58858;50.948;6.566;2022-11-20T01:53:10;100302.84;;;2.58
71163;BMP280;58858;50.948;6.566;2022-11-20T02:03:16;100270.53;;;2.42
71163;BMP280;58858;50.948;6.566;2022-11-20T02:13:17;100282.13;;;2.37
71163;BMP280;58858;50.948;6.566;2022-11-20T02:34:00;100279.03;;;2.23
71163;BMP280;58858;50.948;6.566;2022-11-20T02:44:02;100301.84;;;2.27
71163;BMP280;58858;50.948;6.566;2022-11-20T02:54:04;100282.47;;;2.23
71163;BMP280;58858;50.948;6.566;2022-11-20T03:04:05;100295.53;;;2.14
71163;BMP280;58858;50.948;6.566;2022-11-20T03:14:06;100301.22;;;2.11
71163;BMP280;58858;50.948;6.566;2022-11-20T03:24:07;100293.31;;;2.18
71163;BMP280;58858;50.948;6.566;2022-11-20T03:34:10;100285.47;;;2.14
71163;BMP280;58858;50.948;6.566;2022-11-20T03:44:11;100284.47;;;2.17
71163;BMP280;58858;50.948;6.566;2022-11-20T03:54:12;100263.25;;;2.27
71163;BMP280;58858;50.948;6.566;2022-11-20T04:04:13;100267.94;;;2.26
71163;BMP280;58858;50.948;6.566;2022-11-20T04:14:15;100270.63;;;2.31
71163;BMP280;58858;50.948;6.566;2022-11-20T04:24:16;100259.28;;;2.33
71163;BMP280;58858;50.948;6.566;2022-11-20T04:34:17;100257.81;;;2.32
71163;BMP280;58858;50.948;6.566;2022-11-20T04:44:18;100270.75;;;2.44
71163;BMP280;58858;50.948;6.566;2022-11-20T04:54:19;100277.78;;;2.58
71163;BMP280;58858;50.948;6.566;2022-11-20T05:04:23;100274.16;;;2.50
71163;BMP280;58858;50.948;6.566;2022-11-20T05:14:24;100275.19;;;2.42
71163;BMP280;58858;50.948;6.566;2022-11-20T05:24:25;100285.22;;;2.12
71163;BMP280;58858;50.948;6.566;2022-11-20T05:34:26;100279.75;;;2.23
71163;BMP280;58858;50.948;6.566;2022-11-20T05:44:27;100284.59;;;2.35
71163;BMP280;58858;50.948;6.566;2022-11-20T05:54:28;100254.34;;;2.37
71163;BMP280;58858;50.948;6.566;2022-11-20T06:04:29;100244.66;;;2.47
71163;BMP280;58858;50.948;6.566;2022-11-20T06:14:30;100235.38;;;2.42
71163;BMP280;58858;50.948;6.566;2022-11-20T06:24:31;100226.88;;;2.28
71163;BMP280;58858;50.948;6.566;2022-11-20T06:34:32;100239.69;;;2.56
71163;BMP280;58858;50.948;6.566;2022-11-20T06:44:33;100237.06;;;2.45
71163;BMP280;58858;50.948;6.566;2022-11-20T06:54:34;100255.63;;;2.59
71163;BMP280;58858;50.948;6.566;2022-11-20T07:04:35;100274.50;;;2.70
71163;BMP280;58858;50.948;6.566;2022-11-20T07:14:38;100279.66;;;2.68
71163;BMP280;58858;50.948;6.566;2022-11-20T07:24:39;100286.41;;;2.56
71163;BMP280;58858;50.948;6.566;2022-11-20T07:34:40;100276.31;;;2.57
71163;BMP280;58858;50.948;6.566;2022-11-20T07:44:41;100281.44;;;2.60
71163;BMP280;58858;50.948;6.566;2022-11-20T07:54:42;100281.00;;;2.56
71163;BMP280;58858;50.948;6.566;2022-11-20T08:04:43;100283.19;;;2.58
71163;BMP280;58858;50.948;6.566;2022-11-20T08:14:44;100285.38;;;2.59
71163;BMP280;58858;50.948;6.566;2022-11-20T08:24:45;100288.97;;;2.38
71163;BMP280;58858;50.948;6.566;2022-11-20T08:34:46;100282.41;;;2.29
71163;BMP280;58858;50.948;6.566;2022-11-20T08:44:47;100284.97;;;2.50
71163;BMP280;58858;50.948;6.566;2022-11-20T08:54:48;100278.53;;;2.53
71163;BMP280;58858;50.948;6.566;2022-11-20T09:04:49;100258.25;;;2.70
71163;BMP280;58858;50.948;6.566;2022-11-20T09:14:50;100233.84;;;2.99
71163;BMP280;58858;50.948;6.566;2022-11-20T09:24:51;100219.94;;;3.13
71163;BMP280;58858;50.948;6.566;2022-11-20T09:34:52;100199.72;;;3.37
71163;BMP280;58858;50.948;6.566;2022-11-20T09:55:08;100196.34;;;3.67
71163;BMP280;58858;50.948;6.566;2022-11-20T10:05:33;100177.81;;;3.89
71163;BMP280;58858;50.948;6.566;2022-11-20T10:36:41;100110.84;;;4.02
71163;BMP280;58858;50.948;6.566;2022-11-20T10:46:45;100112.69;;;3.95
71163;BMP280;58858;50.948;6.566;2022-11-20T10:56:56;100113.41;;;3.64
71163;BMP280;58858;50.948;6.566;2022-11-20T11:07:15;100097.41;;;3.79
71163;BMP280;58858;50.948;6.566;2022-11-20T11:17:31;100071.91;;;3.87
71163;BMP280;58858;50.948;6.566;2022-11-20T11:27:32;100075.69;;;3.97
71163;BMP280;58858;50.948;6.566;2022-11-20T11:37:35;100052.81;;;3.93
71163;BMP280;58858;50.948;6.566;2022-11-20T11:47:44;100043.31;;;3.74
71163;BMP280;58858;50.948;6.566;2022-11-20T12:08:02;100002.84;;;4.06
71163;BMP280;58858;50.948;6.566;2022-11-20T12:18:15;99983.97;;;4.14
71163;BMP280;58858;50.948;6.566;2022-11-20T12:39:11;99967.50;;;4.24
71163;BMP280;58858;50.948;6.566;2022-11-20T13:09:53;99893.13;;;4.65
71163;BMP280;58858;50.948;6.566;2022-11-20T13:19:55;99864.69;;;4.79
71163;BMP280;58858;50.948;6.566;2022-11-20T13:30:02;99857.94;;;4.72
71163;BMP280;58858;50.948;6.566;2022-11-20T13:40:13;99843.19;;;4.81
71163;BMP280;58858;50.948;6.566;2022-11-20T13:50:40;99829.63;;;4.81
71163;BMP280;58858;50.948;6.566;2022-11-20T14:00:50;99830.66;;;4.78
71163;BMP280;58858;50.948;6.566;2022-11-20T14:11:05;99824.13;;;4.73
71163;BMP280;58858;50.948;6.566;2022-11-20T14:21:09;99819.13;;;4.77
71163;BMP280;58858;50.948;6.566;2022-11-20T14:31:21;99798.72;;;4.64
71163;BMP280;58858;50.948;6.566;2022-11-20T14:41:23;99798.09;;;4.58
71163;BMP280;58858;50.948;6.566;2022-11-20T14:51:39;99809.09;;;4.72
71163;BMP280;58858;50.948;6.566;2022-11-20T15:01:55;99821.03;;;4.70
71163;BMP280;58858;50.948;6.566;2022-11-20T15:11:59;99819.03;;;4.50
71163;BMP280;58858;50.948;6.566;2022-11-20T15:22:01;99784.88;;;4.54
71163;BMP280;58858;50.948;6.566;2022-11-20T15:32:02;99764.78;;;4.50
71163;BMP280;58858;50.948;6.566;2022-11-20T15:42:03;99762.00;;;4.63
71163;BMP280;58858;50.948;6.566;2022-11-20T15:52:04;99714.94;;;4.60
71163;BMP280;58858;50.948;6.566;2022-11-20T16:02:11;99698.59;;;4.53
71163;BMP280;58858;50.948;6.566;2022-11-20T16:12:12;99686.16;;;4.57
71163;BMP280;58858;50.948;6.566;2022-11-20T16:22:33;99676.63;;;4.64
71163;BMP280;58858;50.948;6.566;2022-11-20T16:32:35;99672.47;;;4.63
71163;BMP280;58858;50.948;6.566;2022-11-20T16:42:37;99632.63;;;4.58
71163;BMP280;58858;50.948;6.566;2022-11-20T16:52:38;99637.03;;;4.68
71163;BMP280;58858;50.948;6.566;2022-11-20T17:02:39;99609.47;;;4.57
71163;BMP280;58858;50.948;6.566;2022-11-20T17:12:39;99588.19;;;4.68
71163;BMP280;58858;50.948;6.566;2022-11-20T17:22:40;99559.38;;;4.58
71163;BMP280;58858;50.948;6.566;2022-11-20T17:32:41;99539.84;;;4.59
71163;BMP280;58858;50.948;6.566;2022-11-20T17:42:46;99528.50;;;4.68
71163;BMP280;58858;50.948;6.566;2022-11-20T17:52:47;99514.09;;;4.80
71163;BMP280;58858;50.948;6.566;2022-11-20T18:02:48;99496.22;;;4.92
71163;BMP280;58858;50.948;6.566;2022-11-20T18:12:49;99495.72;;;5.01
71163;BMP280;58858;50.948;6.566;2022-11-20T18:22:50;99492.53;;;5.31
71163;BMP280;58858;50.948;6.566;2022-11-20T18:32:52;99482.94;;;5.45
71163;BMP280;58858;50.948;6.566;2022-11-20T18:42:53;99459.06;;;5.44
71163;BMP280;58858;50.948;6.566;2022-11-20T18:53:13;99454.53;;;5.53
71163;BMP280;58858;50.948;6.566;2022-11-20T19:03:14;99445.13;;;5.62
71163;BMP280;58858;50.948;6.566;2022-11-20T19:13:15;99444.03;;;5.64
71163;BMP280;58858;50.948;6.566;2022-11-20T19:23:16;99428.13;;;5.83
71163;BMP280;58858;50.948;6.566;2022-11-20T19:33:18;99394.22;;;5.55
71163;BMP280;58858;50.948;6.566;2022-11-20T19:43:19;99409.81;;;5.69
71163;BMP280;58858;50.948;6.566;2022-11-20T19:53:20;99409.06;;;5.76
71163;BMP280;58858;50.948;6.566;2022-11-20T20:03:21;99407.09;;;5.83
71163;BMP280;58858;50.948;6.566;2022-11-20T20:13:23;99403.81;;;5.85
71163;BMP280;58858;50.948;6.566;2022-11-20T20:23:24;99409.81;;;5.83
71163;BMP280;58858;50.948;6.566;2022-11-20T20:33:25;99415.22;;;5.91
71163;BMP280;58858;50.948;6.566;2022-11-20T20:43:27;99427.72;;;5.86
71163;BMP280;58858;50.948;6.566;2022-11-20T20:53:29;99422.66;;;5.76
71163;BMP280;58858;50.948;6.566;2022-11-20T21:03:32;99442.22;;;5.67
71163;BMP280;58858;50.948;6.566;2022-11-20T21:13:35;99445.84;;;5.55
71163;BMP280;58858;50.948;6.566;2022-11-20T21:23:36;99463.59;;;5.48
71163;BMP280;58858;50.948;6.566;2022-11-20T21:33:39;99476.81;;;5.59
71163;BMP280;58858;50.948;6.566;2022-11-20T21:43:40;99484.59;;;5.55
71163;BMP280;58858;50.948;6.566;2022-11-20T21:53:43;99471.75;;;5.56
71163;BMP280;58858;50.948;6.566;2022-11-20T22:03:53;99477.19;;;5.56
71163;BMP280;58858;50.948;6.566;2022-11-20T22:13:54;99493.66;;;5.65
71163;BMP280;58858;50.948;6.566;2022-11-20T22:24:16;99504.72;;;5.67
71163;BMP280;58858;50.948;6.566;2022-11-20T22:34:17;99499.09;;;5.50
71163;BMP280;58858;50.948;6.566;2022-11-20T22:44:18;99539.28;;;5.52
71163;BMP280;58858;50.948;6.566;2022-11-20T22:54:19;99538.56;;;5.51
71163;BMP280;58858;50.948;6.566;2022-11-20T23:04:20;99538.91;;;5.41
71163;BMP280;58858;50.948;6.566;2022-11-20T23:14:21;99550.13;;;5.30
71163;BMP280;58858;50.948;6.566;2022-11-20T23:24:22;99574.22;;;5.41
71163;BMP280;58858;50.948;6.566;2022-11-20T23:34:23;99573.44;;;5.26
71163;BMP280;58858;50.948;6.566;2022-11-20T23:44:24;99571.06;;;5.15
71163;BMP280;58858;50.948;6.566;2022-11-20T23:54:25;99574.06;;;4.97
